Mildred, MT (59341)

2:05 PM MDT on July 04, 2015 (GMT -0600)
RAWS | | Change Station
CLOSE
Current Station
Personal Weather Station
Location: Mildred, MT
Elevation: 2648 ft
Nearby Weather Stations
Active Advisory: Severe Thunderstorm Watch

Elev 2648 ft 46.78 °N, 104.58 °W | Updated 41 minutes ago

Clear
Clear
98.0 °F
Feels Like 98.0 °F
N
4.0
Wind Variable Wind from SW
Gusts 12.0 mph

Today
High -- | Low -- °F
--% Chance of Precip.
Yesterday
High -- | Low -- °F
Precip. -- in
5:10 AM 8:55 PM
Waning Gibbous, 90% visible
Pressure 29.72 in
Visibility 10.0 miles
Clouds Clear
Dew Point 47.0 °F
Humidity 18%
Rainfall in
Snow Depth Not available.
UV 11 out of 12
Pollen 5.70 out of 12
Air Quality Not available.
Flu Activity Not available.
METAR KGDV 041955Z AUTO 19012G18KT 10SM CLR 37/09 A2972 RMK AO1 LTG DSNT W

More Conditions Fewer Conditions

Pressure 29.72 in
Visibility 10.0 miles
Clouds Clear
Dew Point 47.0 °F
Humidity 18%
Rainfall in
Snow Depth Not available.
UV 11 out of 12
Pollen 5.70 out of 12
Air Quality Not available.
Flu Activity Not available.
METAR KGDV 041955Z AUTO 19012G18KT 10SM CLR 37/09 A2972 RMK AO1 LTG DSNT W

More Conditions Fewer Conditions

10-Day Weather Forecast

×

Almanac

Astronomy

Jul. 04, 2015 Rise Set
Actual Time
Civil Twilight
Nautical Twilight
Astronomical Twilight
Moon
Length of Visible Light
Length of Day
Tomorrow will be .
, % of the Moon is Illuminated

Today's Extremes

State Highs State Lows

Community

WunderPhotos

Upload Photos

1,835,073 photos uploaded!

WunderBlogs® & News

Nearby

Air Quality

  Air Quality AQ Index Pollutant
Not available.

Snow Depth

Station Depth Elevation

Earthquake Activity

City Distance Mag. Time & Date
Minimum magnitude displayed is 2.5.

Coastal Water Temperatures

Place Temperature

Stations

Nearby Weather Stations

Station Location Temp. Windchill Dew Point Humidity Wind Precip. Elev Updated Type
                   
Severe Thunderstorm Watch
Statement as of 2:03 PM MDT on July 04, 2015

Severe Thunderstorm Watch 388 remains in effect until 900 PM MDT
for the following locations


Mt
. Montana counties included are

Dawson prairie Richland
Roosevelt Sheridan Wibaux